Time;durP1;ratioP1;P1;durP2;ratioP2;P2;SDS_P1;SDS_P2;PMS_P1;PMS_P2;Temp;Humidity;BMP_temperature;BMP_pressure;BME280_temperature;BME280_humidity;BME280_pressure;Samples;Min_cycle;Max_cycle;Signal;HPM_P1;HPM_P2
2022/10/20 00:01:14;;;;;;;6.00;3.60;;;10.00;89.40;;;;;;5077084;28;20434;-85
2022/10/20 00:03:40;;;;;;;6.50;3.60;;;10.00;89.50;;;;;;5077500;28;20031;-85
2022/10/20 00:06:08;;;;;;;7.27;4.27;;;10.00;89.50;;;;;;5077063;28;20032;-85
2022/10/20 00:08:34;;;;;;;13.13;4.43;;;10.00;89.60;;;;;;5094141;28;20476;-85
2022/10/20 00:10:59;;;;;;;8.30;3.97;;;10.00;90.00;;;;;;5076731;28;20083;-83
2022/10/20 00:13:25;;;;;;;9.13;4.60;;;10.00;89.90;;;;;;5076811;28;20472;-85
2022/10/20 00:15:52;;;;;;;10.13;3.97;;;9.90;89.80;;;;;;5077440;28;20031;-86
2022/10/20 00:18:18;;;;;;;11.43;3.93;;;9.90;90.00;;;;;;5076440;28;20031;-86
2022/10/20 00:20:44;;;;;;;8.50;3.83;;;9.90;90.00;;;;;;5093874;28;20488;-85
2022/10/20 00:23:10;;;;;;;7.17;4.00;;;9.90;90.00;;;;;;5093970;28;20024;-86
2022/10/20 00:25:35;;;;;;;12.60;4.47;;;9.90;90.10;;;;;;5077229;28;20082;-86
2022/10/20 00:28:01;;;;;;;8.17;4.20;;;9.90;90.20;;;;;;5093435;28;20024;-85
2022/10/20 00:30:27;;;;;;;8.07;4.53;;;9.90;90.20;;;;;;5076824;28;20032;-85
2022/10/20 00:32:53;;;;;;;10.00;4.93;;;9.90;90.20;;;;;;5093282;28;20020;-86
2022/10/20 00:35:18;;;;;;;7.07;4.40;;;9.80;90.30;;;;;;5093922;28;20357;-84
2022/10/20 00:37:44;;;;;;;8.13;3.90;;;9.90;90.30;;;;;;5093619;28;20020;-85
2022/10/20 00:40:10;;;;;;;12.20;5.33;;;9.80;90.40;;;;;;5076436;28;20031;-85
2022/10/20 00:42:36;;;;;;;6.57;4.10;;;9.90;90.40;;;;;;5093180;28;20051;-85
2022/10/20 00:45:02;;;;;;;9.63;4.03;;;9.80;90.40;;;;;;5076593;28;20464;-85
2022/10/20 00:47:36;;;;;;;8.53;4.30;;;9.80;90.50;;;;;;5093111;28;20028;-86
2022/10/20 00:50:16;;;;;;;10.00;5.05;;;9.80;90.60;;;;;;5093504;28;20032;-87
2022/10/20 00:52:43;;;;;;;9.03;4.33;;;9.80;90.60;;;;;;5093277;28;20026;-83
2022/10/20 00:55:10;;;;;;;8.90;4.07;;;9.80;90.70;;;;;;5075974;28;20503;-86
2022/10/20 00:57:36;;;;;;;9.73;4.20;;;9.80;90.70;;;;;;5076287;28;20032;-83
2022/10/20 01:00:04;;;;;;;8.07;4.27;;;9.80;90.90;;;;;;5075991;28;20495;-82
2022/10/20 01:02:31;;;;;;;8.20;3.70;;;9.80;90.80;;;;;;5094098;28;20027;-83
2022/10/20 01:04:56;;;;;;;8.13;4.67;;;9.80;90.80;;;;;;5093054;28;20020;-82
2022/10/20 01:07:22;;;;;;;9.70;4.70;;;9.80;90.80;;;;;;5076138;28;20377;-83
2022/10/20 01:09:48;;;;;;;13.67;4.20;;;9.70;90.90;;;;;;5092481;28;20024;-83
2022/10/20 01:12:20;;;;;;;8.60;4.70;;;9.70;90.90;;;;;;5092275;28;20032;-82
2022/10/20 01:14:56;;;;;;;8.10;4.03;;;9.70;91.00;;;;;;5092527;28;20017;-83
2022/10/20 01:17:37;;;;;;;7.57;4.43;;;9.70;91.00;;;;;;5092374;28;20020;-82
2022/10/20 01:20:12;;;;;;;7.90;4.40;;;9.70;91.10;;;;;;5092331;28;20024;-82
2022/10/20 01:23:02;;;;;;;7.87;4.63;;;9.70;91.20;;;;;;5092178;28;20039;-83
2022/10/20 01:25:46;;;;;;;7.13;4.47;;;9.60;91.20;;;;;;5079604;28;20033;-82
2022/10/20 01:28:35;;;;;;;9.90;3.97;;;9.60;91.20;;;;;;5072280;28;20564;-83
2022/10/20 01:31:11;;;;;;;10.57;5.27;;;9.60;91.20;;;;;;5070317;28;20036;-83
2022/10/20 01:33:53;;;;;;;7.97;4.63;;;9.60;91.20;;;;;;5072096;28;20024;-83
2022/10/20 01:36:35;;;;;;;7.77;4.67;;;9.60;91.20;;;;;;5072269;28;20020;-83
2022/10/20 01:39:07;;;;;;;7.33;4.53;;;9.50;91.30;;;;;;5072252;28;20103;-83
2022/10/20 01:41:54;;;;;;;7.63;4.83;;;9.50;91.40;;;;;;5072000;28;20051;-84
2022/10/20 01:44:21;;;;;;;8.97;4.47;;;9.50;91.40;;;;;;5071077;28;20175;-83
2022/10/20 01:46:47;;;;;;;11.80;4.80;;;9.50;91.50;;;;;;5055343;28;20028;-82
2022/10/20 01:49:14;;;;;;;12.00;4.93;;;9.60;91.80;;;;;;5071981;28;20103;-82
2022/10/20 01:51:40;;;;;;;7.53;4.67;;;9.40;91.60;;;;;;5055140;28;20077;-82
2022/10/20 01:54:05;;;;;;;11.33;5.10;;;9.50;92.00;;;;;;5071833;28;20063;-83
2022/10/20 01:57:09;;;;;;;7.37;4.23;;;9.50;91.80;;;;;;5072292;28;20025;-83
2022/10/20 02:00:00;;;;;;;9.57;5.00;;;9.40;91.80;;;;;;5017598;28;20036;-86
2022/10/20 02:02:41;;;;;;;10.93;4.97;;;9.50;91.90;;;;;;5072025;28;20035;-86
2022/10/20 02:05:12;;;;;;;7.97;4.40;;;9.50;92.20;;;;;;5072061;28;20031;-85
2022/10/20 02:07:40;;;;;;;9.37;4.63;;;9.40;91.90;;;;;;5071929;28;20488;-86
2022/10/20 02:10:33;;;;;;;12.83;5.40;;;9.50;92.00;;;;;;5072005;28;20477;-84
2022/10/20 02:13:04;;;;;;;9.50;5.17;;;9.40;92.10;;;;;;5071925;28;20041;-86
2022/10/20 02:15:34;;;;;;;7.70;4.57;;;9.40;92.20;;;;;;5071773;28;20021;-83
2022/10/20 02:18:05;;;;;;;8.97;5.23;;;9.40;92.20;;;;;;5071672;28;20028;-83
2022/10/20 02:20:31;;;;;;;8.40;4.43;;;9.40;92.40;;;;;;5071644;28;20024;-83
2022/10/20 02:22:59;;;;;;;6.73;4.20;;;9.40;92.40;;;;;;5054827;28;20124;-83
2022/10/20 02:25:27;;;;;;;7.17;4.40;;;9.40;92.40;;;;;;5071538;28;20024;-83
2022/10/20 02:27:54;;;;;;;9.33;4.87;;;9.40;92.50;;;;;;5071987;28;20028;-83
2022/10/20 02:30:20;;;;;;;11.57;4.97;;;9.40;92.50;;;;;;5054953;28;20419;-83
2022/10/20 02:32:50;;;;;;;11.00;4.67;;;9.40;92.50;;;;;;5071567;28;20029;-83
2022/10/20 02:35:22;;;;;;;13.30;5.13;;;9.40;92.60;;;;;;5071581;28;20025;-84
2022/10/20 02:37:48;;;;;;;9.73;5.03;;;9.40;92.70;;;;;;5072068;28;20116;-83
2022/10/20 02:40:14;;;;;;;9.60;5.30;;;9.40;92.80;;;;;;5054727;28;20049;-83
2022/10/20 02:42:42;;;;;;;8.17;4.67;;;9.30;92.90;;;;;;5074280;28;20542;-83
2022/10/20 02:45:08;;;;;;;9.27;4.97;;;9.40;92.90;;;;;;5076429;28;20032;-83
2022/10/20 02:47:34;;;;;;;10.23;5.97;;;9.40;92.90;;;;;;5075099;28;20031;-83
2022/10/20 02:50:01;;;;;;;10.47;5.70;;;9.40;93.00;;;;;;5074984;28;20103;-83
2022/10/20 02:52:27;;;;;;;8.13;4.83;;;9.40;93.00;;;;;;5074926;28;20036;-83
2022/10/20 02:54:52;;;;;;;8.07;4.73;;;9.40;93.20;;;;;;5058821;28;20124;-83
2022/10/20 02:57:18;;;;;;;10.73;5.57;;;9.40;93.20;;;;;;5058247;28;20056;-83
2022/10/20 02:59:44;;;;;;;11.20;5.00;;;9.40;93.20;;;;;;5074812;28;20465;-83
2022/10/20 03:02:09;;;;;;;8.37;5.53;;;9.50;93.30;;;;;;5074783;28;20123;-83
2022/10/20 03:04:35;;;;;;;8.63;4.63;;;9.40;93.30;;;;;;5057988;28;20044;-83
2022/10/20 03:07:01;;;;;;;9.03;4.87;;;9.40;93.30;;;;;;5074933;28;20350;-83
2022/10/20 03:09:26;;;;;;;10.17;4.93;;;9.30;93.40;;;;;;5074619;28;20078;-83
2022/10/20 03:11:52;;;;;;;8.00;4.70;;;9.50;93.40;;;;;;5057803;28;20061;-83
2022/10/20 03:14:18;;;;;;;11.27;5.47;;;9.40;93.50;;;;;;5057985;28;20040;-83
2022/10/20 03:16:43;;;;;;;7.77;4.60;;;9.40;93.80;;;;;;5057676;28;20029;-83
2022/10/20 03:19:09;;;;;;;11.10;4.73;;;9.40;93.60;;;;;;5057704;28;20039;-83
2022/10/20 03:21:35;;;;;;;10.30;5.03;;;9.40;93.60;;;;;;5057758;28;20029;-83
2022/10/20 03:24:00;;;;;;;8.23;5.03;;;9.40;93.60;;;;;;5057777;28;20034;-83
2022/10/20 03:26:26;;;;;;;7.53;4.70;;;9.30;93.60;;;;;;5057694;28;20399;-83
2022/10/20 03:28:51;;;;;;;10.13;4.93;;;9.40;93.60;;;;;;5057668;28;20028;-82
2022/10/20 03:31:17;;;;;;;9.37;4.77;;;9.40;93.70;;;;;;5074539;28;20082;-82
2022/10/20 03:33:43;;;;;;;8.13;4.83;;;9.30;93.70;;;;;;5057595;28;20025;-82
2022/10/20 03:36:08;;;;;;;8.07;4.53;;;9.40;93.80;;;;;;5057891;28;20434;-82
2022/10/20 03:38:34;;;;;;;9.70;4.70;;;9.30;93.80;;;;;;5057542;28;20052;-83
2022/10/20 03:41:00;;;;;;;9.63;5.40;;;9.30;93.90;;;;;;5057488;28;20021;-83
2022/10/20 03:43:34;;;;;;;9.80;5.00;;;9.40;93.90;;;;;;5073967;28;20077;-83
2022/10/20 03:46:06;;;;;;;12.23;5.40;;;9.30;93.90;;;;;;5057853;28;20060;-83
2022/10/20 03:48:31;;;;;;;9.70;5.60;;;9.30;94.10;;;;;;5073722;28;20538;-82
2022/10/20 03:50:59;;;;;;;11.10;5.50;;;9.30;94.10;;;;;;5057156;28;20024;-83
2022/10/20 03:53:24;;;;;;;7.30;4.63;;;9.30;94.10;;;;;;5073285;28;20063;-83
2022/10/20 03:55:50;;;;;;;12.57;5.67;;;9.30;94.20;;;;;;5073788;28;20075;-83
2022/10/20 03:58:16;;;;;;;12.50;5.37;;;9.30;94.20;;;;;;5057167;28;20025;-83
2022/10/20 04:00:41;;;;;;;9.77;5.47;;;9.20;94.30;;;;;;5057207;28;20029;-83
2022/10/20 04:03:10;;;;;;;12.73;5.83;;;9.30;94.30;;;;;;5073821;28;20119;-84
2022/10/20 04:05:35;;;;;;;12.00;5.60;;;9.30;94.40;;;;;;5057197;28;20032;-82
2022/10/20 04:08:03;;;;;;;12.67;5.77;;;9.30;94.50;;;;;;5073373;28;20025;-83
2022/10/20 04:10:29;;;;;;;13.23;6.37;;;9.30;94.60;;;;;;5057251;28;20037;-85
2022/10/20 04:12:59;;;;;;;11.47;6.73;;;9.30;94.60;;;;;;5073888;28;20041;-84
2022/10/20 04:15:24;;;;;;;13.67;6.40;;;9.30;94.70;;;;;;5057286;28;20028;-85
2022/10/20 04:17:50;;;;;;;13.07;6.10;;;9.30;94.90;;;;;;5056864;28;20388;-85
2022/10/20 04:20:16;;;;;;;10.70;6.03;;;9.30;94.80;;;;;;5057015;28;20040;-84
2022/10/20 04:22:42;;;;;;;13.30;6.13;;;9.30;94.80;;;;;;5074650;28;20025;-85
2022/10/20 04:25:08;;;;;;;10.40;5.73;;;9.40;94.90;;;;;;5057492;28;20040;-85
2022/10/20 04:27:34;;;;;;;11.50;5.83;;;9.40;95.00;;;;;;5073657;28;20431;-86
2022/10/20 04:29:59;;;;;;;10.30;6.00;;;9.40;95.00;;;;;;5056843;28;20028;-86
2022/10/20 04:32:25;;;;;;;11.30;6.10;;;9.40;95.10;;;;;;5056756;28;20040;-84
2022/10/20 04:34:51;;;;;;;9.43;6.27;;;9.40;95.10;;;;;;5073391;28;20107;-85
2022/10/20 04:37:16;;;;;;;14.17;6.70;;;9.40;95.20;;;;;;5056566;28;20097;-85
2022/10/20 04:39:42;;;;;;;15.03;6.40;;;9.40;95.20;;;;;;5056361;28;20028;-85
2022/10/20 04:42:08;;;;;;;10.80;6.43;;;9.40;95.60;;;;;;5056443;28;20028;-83
2022/10/20 04:44:33;;;;;;;9.70;5.43;;;9.40;95.30;;;;;;5073264;28;20028;-86
2022/10/20 04:46:59;;;;;;;9.23;5.70;;;9.40;95.40;;;;;;5073363;28;20059;-85
2022/10/20 04:49:25;;;;;;;17.90;6.77;;;9.50;95.60;;;;;;5073319;28;20500;-84
2022/10/20 04:51:50;;;;;;;12.87;6.57;;;9.50;95.60;;;;;;5073018;28;20040;-86
2022/10/20 04:54:16;;;;;;;9.73;6.30;;;9.50;95.60;;;;;;5072834;28;20025;-85
2022/10/20 04:56:41;;;;;;;11.07;5.60;;;9.50;95.60;;;;;;5056132;28;20484;-85
2022/10/20 04:59:08;;;;;;;9.80;6.00;;;9.50;95.60;;;;;;5073224;28;20393;-86
2022/10/20 05:01:34;;;;;;;11.87;6.30;;;9.50;95.60;;;;;;5056618;28;20404;-85
2022/10/20 05:03:59;;;;;;;10.27;6.03;;;9.50;95.70;;;;;;5072787;28;20063;-85
2022/10/20 05:06:30;;;;;;;11.93;6.00;;;9.50;95.70;;;;;;5072146;28;20033;-86
2022/10/20 05:08:58;;;;;;;10.30;6.10;;;9.50;95.70;;;;;;5072795;28;20048;-86
2022/10/20 05:11:27;;;;;;;12.90;6.80;;;9.60;95.80;;;;;;5072614;28;20123;-85
2022/10/20 05:13:53;;;;;;;11.80;5.67;;;9.60;95.80;;;;;;5073208;28;20092;-85
2022/10/20 05:16:19;;;;;;;9.93;6.13;;;9.60;96.20;;;;;;5072655;28;20032;-85
2022/10/20 05:18:46;;;;;;;8.50;5.20;;;9.60;95.90;;;;;;5055994;28;20029;-86
2022/10/20 05:21:14;;;;;;;11.23;6.07;;;9.60;95.90;;;;;;5056069;28;20115;-85
2022/10/20 05:23:41;;;;;;;11.00;6.20;;;9.60;95.80;;;;;;5072539;28;20024;-85
2022/10/20 05:26:10;;;;;;;11.10;5.87;;;9.60;95.90;;;;;;5072616;28;20491;-85
2022/10/20 05:28:36;;;;;;;13.83;6.67;;;9.60;95.90;;;;;;5074031;28;20484;-86
2022/10/20 05:31:04;;;;;;;10.87;5.50;;;9.60;95.90;;;;;;5073268;28;20028;-85
2022/10/20 05:33:29;;;;;;;9.50;5.53;;;9.60;95.90;;;;;;5073547;28;20029;-86
2022/10/20 05:35:55;;;;;;;11.20;6.03;;;9.70;95.90;;;;;;5056114;28;20033;-86
2022/10/20 05:38:21;;;;;;;10.63;6.23;;;9.60;95.90;;;;;;5072659;28;20032;-85
2022/10/20 05:40:47;;;;;;;11.67;6.23;;;9.60;95.90;;;;;;5056470;28;20427;-86
2022/10/20 05:43:12;;;;;;;13.87;6.93;;;9.60;95.90;;;;;;5056744;28;20086;-85
2022/10/20 05:45:38;;;;;;;9.93;6.30;;;9.50;95.90;;;;;;5056866;28;20552;-85
2022/10/20 05:48:04;;;;;;;10.43;6.37;;;9.60;95.90;;;;;;5057075;28;20037;-85
2022/10/20 05:50:30;;;;;;;12.90;5.80;;;9.60;95.90;;;;;;5072861;28;20081;-85
2022/10/20 05:52:56;;;;;;;10.07;6.13;;;9.60;95.90;;;;;;5072307;28;20433;-85
2022/10/20 05:55:22;;;;;;;9.03;5.97;;;9.60;96.00;;;;;;5072067;28;20492;-86
2022/10/20 05:57:51;;;;;;;12.60;6.03;;;9.60;96.00;;;;;;5062026;28;20073;-85
2022/10/20 06:00:23;;;;;;;9.30;5.60;;;9.50;96.00;;;;;;5072258;28;20104;-86
2022/10/20 06:02:49;;;;;;;11.60;6.07;;;9.70;96.10;;;;;;5062824;28;20436;-85
2022/10/20 06:05:14;;;;;;;10.93;5.83;;;9.60;96.10;;;;;;5073451;28;20148;-86
2022/10/20 06:07:40;;;;;;;14.67;7.37;;;9.60;96.10;;;;;;5075499;28;20060;-85
2022/10/20 06:10:06;;;;;;;13.90;6.97;;;9.60;96.10;;;;;;5075606;28;20061;-85
2022/10/20 06:12:31;;;;;;;11.90;6.90;;;9.60;96.20;;;;;;5075079;28;20044;-86
2022/10/20 06:14:57;;;;;;;13.63;6.83;;;9.70;96.30;;;;;;5075716;28;20532;-85
2022/10/20 06:17:22;;;;;;;12.70;7.43;;;9.60;96.30;;;;;;5095293;28;20460;-86
2022/10/20 06:19:48;;;;;;;11.20;6.83;;;9.70;96.40;;;;;;5078750;28;20094;-84
2022/10/20 06:22:14;;;;;;;16.97;7.63;;;9.60;96.40;;;;;;5074803;28;21477;-84
2022/10/20 06:24:39;;;;;;;12.23;7.07;;;9.70;96.50;;;;;;5058658;28;20029;-85
2022/10/20 06:27:05;;;;;;;14.67;6.53;;;9.70;96.60;;;;;;5064833;28;20020;-84
2022/10/20 06:29:31;;;;;;;10.97;6.63;;;9.80;96.70;;;;;;5058893;28;20024;-85
2022/10/20 06:31:56;;;;;;;14.47;7.20;;;9.80;96.70;;;;;;5061328;28;20067;-82
2022/10/20 06:34:24;;;;;;;14.13;7.30;;;9.80;96.80;;;;;;5095532;28;20048;-85
2022/10/20 06:36:50;;;;;;;11.80;7.00;;;9.80;96.70;;;;;;5095579;28;20455;-85
2022/10/20 06:39:19;;;;;;;14.27;6.80;;;9.80;96.60;;;;;;5092928;28;20130;-85
2022/10/20 06:41:49;;;;;;;15.57;7.90;;;9.80;96.60;;;;;;5058602;28;20047;-86
2022/10/20 06:44:16;;;;;;;16.47;7.80;;;9.90;96.80;;;;;;5075418;28;20081;-85
2022/10/20 06:46:42;;;;;;;12.23;7.33;;;9.80;96.70;;;;;;5075236;28;20115;-86
2022/10/20 06:49:10;;;;;;;11.60;6.93;;;9.90;96.70;;;;;;5075478;28;20117;-86
2022/10/20 06:51:36;;;;;;;11.40;6.53;;;9.90;96.70;;;;;;5076393;28;20033;-85
2022/10/20 06:54:03;;;;;;;10.73;7.07;;;9.90;97.00;;;;;;5088702;28;20027;-85
2022/10/20 06:56:31;;;;;;;12.87;6.33;;;10.00;96.80;;;;;;5075195;28;20025;-85
2022/10/20 06:58:58;;;;;;;14.40;7.80;;;10.00;96.80;;;;;;5076409;28;20396;-86
2022/10/20 07:01:30;;;;;;;13.50;6.77;;;10.00;96.80;;;;;;5075270;28;20427;-85
2022/10/20 07:03:58;;;;;;;18.30;7.33;;;10.00;96.90;;;;;;5074829;28;20021;-85
2022/10/20 07:06:33;;;;;;;11.97;6.63;;;10.10;96.90;;;;;;5075025;28;20025;-85
2022/10/20 07:09:00;;;;;;;13.57;7.40;;;10.10;96.90;;;;;;5075083;28;20028;-85
2022/10/20 07:11:27;;;;;;;12.60;7.50;;;10.20;97.00;;;;;;5076761;28;20089;-86
2022/10/20 07:13:53;;;;;;;10.43;6.97;;;10.20;97.00;;;;;;5080860;28;20504;-85
2022/10/20 07:16:24;;;;;;;10.63;6.90;;;10.20;97.00;;;;;;5088213;28;20368;-85
2022/10/20 07:18:51;;;;;;;14.30;7.90;;;10.30;97.00;;;;;;5091371;28;20055;-84
2022/10/20 07:21:19;;;;;;;14.40;7.93;;;10.30;97.00;;;;;;5076008;28;20021;-85
2022/10/20 07:23:46;;;;;;;10.90;6.83;;;10.30;97.00;;;;;;5074377;28;20025;-86
2022/10/20 07:26:20;;;;;;;13.53;7.57;;;10.30;97.00;;;;;;5083522;28;20013;-85
2022/10/20 07:28:53;;;;;;;10.77;6.77;;;10.40;97.00;;;;;;5082884;28;20468;-85
2022/10/20 07:31:23;;;;;;;9.30;6.30;;;10.40;97.00;;;;;;5094487;28;20027;-84
2022/10/20 07:33:48;;;;;;;10.37;6.27;;;10.50;97.00;;;;;;5094396;28;20107;-84
2022/10/20 07:36:14;;;;;;;10.33;6.83;;;10.50;97.00;;;;;;5076468;28;20111;-80
2022/10/20 07:38:40;;;;;;;11.40;6.83;;;10.50;97.00;;;;;;5093889;28;20593;-79
2022/10/20 07:41:06;;;;;;;10.60;7.13;;;10.60;97.00;;;;;;5082639;28;20021;-80
2022/10/20 07:43:31;;;;;;;13.23;7.50;;;10.60;97.00;;;;;;5078950;28;20027;-79
2022/10/20 07:45:57;;;;;;;11.73;6.43;;;10.70;97.00;;;;;;5074125;28;20496;-79
2022/10/20 07:48:23;;;;;;;14.73;6.87;;;10.70;97.00;;;;;;5073803;28;20024;-79
2022/10/20 07:50:48;;;;;;;14.53;6.30;;;10.80;97.00;;;;;;5073715;28;20679;-79
2022/10/20 07:53:14;;;;;;;12.67;6.73;;;10.80;97.00;;;;;;5057167;28;20028;-79
2022/10/20 07:55:39;;;;;;;13.60;6.80;;;10.80;97.00;;;;;;5056907;28;20025;-81
2022/10/20 07:58:05;;;;;;;12.20;6.67;;;10.90;96.90;;;;;;5074049;28;20044;-80
2022/10/20 08:00:31;;;;;;;10.38;6.82;;;10.90;96.90;;;;;;5057295;28;20025;-80
2022/10/20 08:02:56;;;;;;;13.33;7.10;;;11.00;96.80;;;;;;5073654;28;20035;-80
2022/10/20 08:05:22;;;;;;;12.93;6.97;;;11.00;96.70;;;;;;5073411;28;20043;-80
2022/10/20 08:07:48;;;;;;;13.43;7.05;;;11.00;96.70;;;;;;5089878;28;20020;-81
2022/10/20 08:10:13;;;;;;;14.30;7.90;;;11.10;96.70;;;;;;5073324;28;20500;-80
2022/10/20 08:12:39;;;;;;;12.33;7.33;;;11.10;96.70;;;;;;5072910;28;20555;-80
2022/10/20 08:15:05;;;;;;;11.40;7.30;;;11.10;96.70;;;;;;5073437;28;20033;-80
2022/10/20 08:17:31;;;;;;;11.50;6.53;;;11.20;96.70;;;;;;5072935;28;20077;-80
2022/10/20 08:19:56;;;;;;;11.68;6.95;;;11.40;96.70;;;;;;5073373;28;20033;-80
2022/10/20 08:22:22;;;;;;;12.82;6.82;;;11.40;96.70;;;;;;5074418;28;20062;-80
2022/10/20 08:24:48;;;;;;;12.73;7.20;;;11.40;96.70;;;;;;5056536;28;20496;-80
2022/10/20 08:27:13;;;;;;;15.13;7.75;;;11.50;96.70;;;;;;5090563;28;20027;-80
2022/10/20 08:29:39;;;;;;;12.88;6.80;;;11.60;96.60;;;;;;5073360;28;20035;-80
2022/10/20 08:32:05;;;;;;;11.68;7.30;;;11.60;96.60;;;;;;5072849;28;20029;-79
2022/10/20 08:34:30;;;;;;;14.45;7.07;;;11.70;96.60;;;;;;5056403;28;20025;-80
2022/10/20 08:36:56;;;;;;;14.48;6.18;;;11.80;96.50;;;;;;5073020;28;20025;-80
2022/10/20 08:39:22;;;;;;;14.15;6.47;;;11.90;96.60;;;;;;5072922;28;20029;-80
2022/10/20 08:41:50;;;;;;;10.82;6.80;;;12.00;96.50;;;;;;5090112;28;20026;-79
2022/10/20 08:44:26;;;;;;;14.38;7.57;;;12.10;96.40;;;;;;5073167;28;20032;-80
2022/10/20 08:46:51;;;;;;;9.85;6.50;;;12.20;96.40;;;;;;5090574;28;20052;-80
2022/10/20 08:49:24;;;;;;;14.32;7.70;;;12.30;96.40;;;;;;5056053;28;20477;-80
2022/10/20 08:51:50;;;;;;;11.95;6.38;;;12.50;96.20;;;;;;5092479;28;20423;-80
2022/10/20 08:54:17;;;;;;;11.45;7.07;;;12.50;96.20;;;;;;5092822;28;20020;-80
2022/10/20 08:56:44;;;;;;;12.98;6.82;;;12.60;96.10;;;;;;5092852;28;20035;-80
2022/10/20 08:59:27;;;;;;;18.75;7.40;;;12.80;96.00;;;;;;5094014;28;20024;-79
2022/10/20 09:01:54;;;;;;;12.10;6.70;;;12.90;95.90;;;;;;5094053;28;20081;-80
2022/10/20 09:04:26;;;;;;;12.65;6.95;;;12.90;95.70;;;;;;5076100;28;20032;-80
2022/10/20 09:07:04;;;;;;;12.13;6.20;;;13.10;95.50;;;;;;5092635;28;20024;-79
2022/10/20 09:09:32;;;;;;;11.68;7.63;;;13.10;95.40;;;;;;5092799;28;20034;-80
2022/10/20 09:12:06;;;;;;;12.45;6.95;;;13.20;95.20;;;;;;5075668;28;20064;-80
2022/10/20 09:14:35;;;;;;;12.50;6.93;;;13.30;95.10;;;;;;5092607;28;20021;-80
2022/10/20 09:17:01;;;;;;;10.23;6.30;;;13.30;95.00;;;;;;5092117;28;20471;-80
2022/10/20 09:19:27;;;;;;;16.35;6.13;;;13.50;94.90;;;;;;5072301;28;20017;-80
2022/10/20 09:22:05;;;;;;;12.75;7.00;;;13.50;94.70;;;;;;5055952;28;20086;-80
2022/10/20 09:24:33;;;;;;;12.27;7.03;;;13.50;94.60;;;;;;5079858;28;20060;-80
2022/10/20 09:27:43;;;;;;;12.00;7.28;;;13.60;94.50;;;;;;5080334;28;20540;-78
2022/10/20 09:30:33;;;;;;;9.93;5.97;;;13.70;94.50;;;;;;5078671;28;20082;-79
2022/10/20 09:32:59;;;;;;;12.23;6.95;;;13.80;94.40;;;;;;5070695;28;20040;-80
2022/10/20 09:35:31;;;;;;;13.05;7.20;;;13.80;94.20;;;;;;5074384;28;20021;-80
2022/10/20 09:38:18;;;;;;;14.02;6.88;;;13.80;94.20;;;;;;5092194;28;20383;-80
2022/10/20 09:41:09;;;;;;;11.40;7.00;;;13.90;94.20;;;;;;5092391;28;20013;-79
2022/10/20 09:43:38;;;;;;;10.38;6.07;;;13.90;94.10;;;;;;5092316;28;20028;-85
2022/10/20 09:46:08;;;;;;;12.15;7.05;;;13.90;94.00;;;;;;5080269;28;20029;-84
2022/10/20 09:48:37;;;;;;;11.05;6.80;;;14.00;94.00;;;;;;5078482;28;20020;-84
2022/10/20 09:51:06;;;;;;;10.85;5.85;;;14.10;93.90;;;;;;5092137;28;20097;-84
2022/10/20 09:53:49;;;;;;;13.40;7.20;;;14.10;94.10;;;;;;5083124;28;20020;-85
2022/10/20 09:56:32;;;;;;;11.50;5.90;;;14.20;93.80;;;;;;5076237;28;20016;-83
2022/10/20 09:59:00;;;;;;;10.90;6.28;;;14.20;93.70;;;;;;5093306;28;20361;-85
2022/10/20 10:01:26;;;;;;;11.05;6.57;;;14.20;93.50;;;;;;5095737;28;20029;-85
2022/10/20 10:03:58;;;;;;;10.65;6.95;;;14.30;93.50;;;;;;5079329;28;20032;-83
2022/10/20 10:06:43;;;;;;;16.88;6.80;;;14.30;93.40;;;;;;5096445;28;20069;-84
2022/10/20 10:09:33;;;;;;;13.98;7.70;;;14.30;93.40;;;;;;5096361;28;20447;-85
2022/10/20 10:12:03;;;;;;;10.25;6.78;;;14.30;93.30;;;;;;5097428;28;20040;-84
2022/10/20 10:14:32;;;;;;;13.43;7.07;;;14.30;93.20;;;;;;5095987;28;20017;-83
2022/10/20 10:16:58;;;;;;;12.35;6.80;;;14.30;93.20;;;;;;5095917;28;20062;-84
2022/10/20 10:19:27;;;;;;;9.90;6.55;;;14.30;93.20;;;;;;5096418;28;20077;-84
2022/10/20 10:21:56;;;;;;;10.93;6.63;;;14.40;93.30;;;;;;5086225;28;20063;-85
2022/10/20 10:24:45;;;;;;;11.93;6.68;;;14.40;93.30;;;;;;5075873;28;20119;-84
2022/10/20 10:27:21;;;;;;;13.05;6.28;;;14.40;93.30;;;;;;5075632;28;20499;-86
2022/10/20 10:29:47;;;;;;;12.82;6.55;;;14.50;93.40;;;;;;5075650;28;20020;-85
2022/10/20 10:32:25;;;;;;;11.90;5.88;;;14.50;93.40;;;;;;5075576;28;20085;-84
2022/10/20 10:35:16;;;;;;;16.63;6.55;;;14.50;93.40;;;;;;5076851;28;20405;-84
2022/10/20 10:37:44;;;;;;;12.43;6.30;;;14.60;93.50;;;;;;5076731;28;20063;-83
2022/10/20 10:40:19;;;;;;;9.77;6.40;;;14.60;93.50;;;;;;5075333;28;20389;-84
2022/10/20 10:42:55;;;;;;;10.05;5.88;;;14.70;93.50;;;;;;5075314;28;20024;-84
2022/10/20 10:45:43;;;;;;;8.63;5.65;;;14.70;93.50;;;;;;5075220;28;20051;-83
2022/10/20 10:48:17;;;;;;;10.07;5.90;;;14.80;93.50;;;;;;5074998;28;20074;-83
2022/10/20 10:50:57;;;;;;;9.88;6.28;;;14.80;93.50;;;;;;5076397;28;20020;-81
2022/10/20 10:53:30;;;;;;;7.93;5.18;;;14.80;93.50;;;;;;5074908;28;20081;-84
2022/10/20 10:56:21;;;;;;;11.67;5.53;;;14.90;93.50;;;;;;5075123;28;20503;-82
2022/10/20 10:58:56;;;;;;;9.75;6.10;;;14.90;93.50;;;;;;5075084;28;20025;-85
2022/10/20 11:01:57;;;;;;;9.50;5.60;;;14.90;93.50;;;;;;5075294;28;20058;-83
2022/10/20 11:04:35;;;;;;;15.73;6.38;;;15.00;93.50;;;;;;5075017;28;20064;-83
2022/10/20 11:07:17;;;;;;;9.90;6.63;;;15.00;93.60;;;;;;5074837;28;20067;-83
2022/10/20 11:10:04;;;;;;;11.85;6.32;;;15.00;93.70;;;;;;5075072;28;20464;-82
2022/10/20 11:12:55;;;;;;;11.55;7.10;;;15.00;93.70;;;;;;5074661;28;20052;-83
2022/10/20 11:15:46;;;;;;;11.80;7.15;;;15.00;93.90;;;;;;5075389;28;20024;-86
2022/10/20 11:18:41;;;;;;;11.60;6.85;;;15.00;94.00;;;;;;5074631;28;20020;-85
2022/10/20 11:21:34;;;;;;;10.38;6.57;;;15.00;94.00;;;;;;5074755;28;20028;-83
2022/10/20 11:24:23;;;;;;;12.52;7.40;;;15.00;94.10;;;;;;5076010;28;20431;-86
2022/10/20 11:27:03;;;;;;;12.63;6.95;;;14.90;94.10;;;;;;5074525;28;20107;-83
2022/10/20 11:29:42;;;;;;;12.55;6.70;;;14.90;94.20;;;;;;5074676;28;20021;-81
2022/10/20 11:32:18;;;;;;;11.20;7.53;;;14.90;94.40;;;;;;5074348;28;20017;-84
2022/10/20 11:34:49;;;;;;;13.85;7.20;;;14.90;94.50;;;;;;5074574;28;20053;-85
2022/10/20 11:37:28;;;;;;;11.63;6.82;;;14.90;94.60;;;;;;5074553;28;20108;-82
2022/10/20 11:40:17;;;;;;;13.35;7.22;;;15.00;94.80;;;;;;5074531;28;20492;-84
2022/10/20 11:42:56;;;;;;;14.40;7.53;;;14.90;95.00;;;;;;5074655;28;20020;-85
2022/10/20 11:45:34;;;;;;;10.80;7.80;;;14.90;95.10;;;;;;5082167;28;20483;-86
2022/10/20 11:48:21;;;;;;;13.50;8.02;;;14.80;95.10;;;;;;5094944;28;20027;-81
2022/10/20 11:50:55;;;;;;;14.13;7.45;;;14.80;95.30;;;;;;5077773;28;20113;-85
2022/10/20 11:54:16;;;;;;;10.73;7.40;;;14.80;95.30;;;;;;5074008;28;20118;-85
2022/10/20 11:56:51;;;;;;;13.38;7.78;;;14.80;95.50;;;;;;5050810;28;20029;-86
2022/10/20 11:59:32;;;;;;;12.57;7.68;;;14.80;95.90;;;;;;5074002;28;20029;-85
2022/10/20 12:02:01;;;;;;;13.98;8.32;;;14.80;95.60;;;;;;5081016;28;20024;-82
2022/10/20 12:04:36;;;;;;;11.48;7.65;;;14.80;96.00;;;;;;5081816;28;20032;-81
2022/10/20 12:07:32;;;;;;;14.50;8.70;;;14.70;96.00;;;;;;5081221;28;20036;-82
2022/10/20 12:10:17;;;;;;;14.13;7.90;;;14.70;96.20;;;;;;5091468;28;20039;-82
2022/10/20 12:13:01;;;;;;;17.42;9.57;;;14.80;96.50;;;;;;5093192;28;20040;-80
2022/10/20 12:15:27;;;;;;;;;;;14.80;96.70;;;;;;5084233;28;20026;-80
2022/10/20 12:17:56;;;;;;;13.30;8.27;;;14.80;96.90;;;;;;5056820;28;20003;-80
2022/10/20 12:20:22;;;;;;;11.10;8.40;;;14.80;97.00;;;;;;5073414;28;20062;-81
2022/10/20 12:22:51;;;;;;;13.50;8.20;;;14.80;97.20;;;;;;5079827;28;20060;-81
2022/10/20 12:25:24;;;;;;;12.90;8.63;;;14.80;97.30;;;;;;5088715;28;20028;-80
2022/10/20 12:28:23;;;;;;;13.35;8.48;;;14.70;97.50;;;;;;5093236;28;20103;-80
2022/10/20 12:31:04;;;;;;;15.85;9.25;;;14.70;97.60;;;;;;5086091;28;20024;-81
2022/10/20 12:34:02;;;;;;;18.25;9.65;;;14.70;98.10;;;;;;5092218;28;20059;-80
2022/10/20 12:36:30;;;;;;;16.08;10.52;;;14.70;98.40;;;;;;5072494;28;20043;-79
2022/10/20 12:39:11;;;;;;;13.68;9.10;;;14.70;98.40;;;;;;5077050;28;20447;-79
2022/10/20 12:41:44;;;;;;;13.93;8.90;;;14.70;98.50;;;;;;5072768;28;20024;-80
2022/10/20 12:44:18;;;;;;;18.77;8.27;;;14.70;98.60;;;;;;5085338;28;20028;-80
2022/10/20 12:46:58;;;;;;;;;;;14.80;98.70;;;;;;5092759;28;20107;-79
2022/10/20 12:49:34;;;;;;;10.80;6.75;;;14.80;98.80;;;;;;5085277;28;19947;-80
2022/10/20 12:52:03;;;;;;;15.75;8.95;;;14.90;99.00;;;;;;5092355;28;20028;-79
2022/10/20 12:54:39;;;;;;;13.43;8.50;;;14.90;99.10;;;;;;5092517;28;20024;-80
2022/10/20 12:57:26;;;;;;;12.98;8.65;;;15.00;99.10;;;;;;5093039;28;20027;-80
2022/10/20 12:59:52;;;;;;;13.00;8.05;;;15.10;99.20;;;;;;5088886;28;20024;-78
2022/10/20 13:02:22;;;;;;;15.90;8.88;;;15.10;99.30;;;;;;5075465;28;20476;-79
2022/10/20 13:04:53;;;;;;;16.08;9.02;;;15.10;99.30;;;;;;5087998;28;20123;-80